sensor_id;sensor_type;location;lat;lon;timestamp;pressure;altitude;pressure_sealevel;temperature;humidity
39435;BME280;30098;51.880;-0.518;2022-12-18T00:01:47;101204.72;;;13.26;33.17
39435;BME280;30098;51.880;-0.518;2022-12-18T00:04:21;101215.25;;;13.23;32.69
39435;BME280;30098;51.880;-0.518;2022-12-18T00:06:47;101031.56;;;12.10;32.69
39435;BME280;30098;51.880;-0.518;2022-12-18T00:09:12;101199.31;;;13.26;32.74
39435;BME280;30098;51.880;-0.518;2022-12-18T00:11:38;101209.09;;;13.27;33.00
39435;BME280;30098;51.880;-0.518;2022-12-18T00:14:04;101197.44;;;13.27;33.12
39435;BME280;30098;51.880;-0.518;2022-12-18T00:16:29;101187.50;;;13.10;32.95
39435;BME280;30098;51.880;-0.518;2022-12-18T00:18:58;101185.91;;;13.14;33.34
39435;BME280;30098;51.880;-0.518;2022-12-18T00:21:24;101194.50;;;13.28;33.01
39435;BME280;30098;51.880;-0.518;2022-12-18T00:23:50;101211.56;;;13.29;33.20
39435;BME280;30098;51.880;-0.518;2022-12-18T00:26:22;101195.06;;;13.30;33.06
39435;BME280;30098;51.880;-0.518;2022-12-18T00:28:48;101189.66;;;13.30;32.93
39435;BME280;30098;51.880;-0.518;2022-12-18T00:31:17;101206.94;;;13.29;32.80
39435;BME280;30098;51.880;-0.518;2022-12-18T00:33:43;101189.59;;;13.25;33.34
39435;BME280;30098;51.880;-0.518;2022-12-18T00:36:18;101177.97;;;13.30;33.01
39435;BME280;30098;51.880;-0.518;2022-12-18T00:38:45;101184.22;;;13.30;32.78
39435;BME280;30098;51.880;-0.518;2022-12-18T00:41:12;101191.50;;;13.30;32.41
39435;BME280;30098;51.880;-0.518;2022-12-18T00:43:39;101197.75;;;13.30;32.86
39435;BME280;30098;51.880;-0.518;2022-12-18T00:46:05;101012.16;;;12.13;33.09
39435;BME280;30098;51.880;-0.518;2022-12-18T00:48:31;101163.47;;;13.14;32.95
39435;BME280;30098;51.880;-0.518;2022-12-18T00:50:56;101183.41;;;13.30;33.11
39435;BME280;30098;51.880;-0.518;2022-12-18T00:53:22;101145.19;;;12.99;33.08
39435;BME280;30098;51.880;-0.518;2022-12-18T00:55:47;101180.69;;;13.30;32.79
39435;BME280;30098;51.880;-0.518;2022-12-18T00:58:15;101181.53;;;13.30;32.81
39435;BME280;30098;51.880;-0.518;2022-12-18T01:00:41;101196.94;;;13.30;33.10
39435;BME280;30098;51.880;-0.518;2022-12-18T01:03:06;101056.09;;;12.48;33.19
39435;BME280;30098;51.880;-0.518;2022-12-18T01:05:32;101177.97;;;13.30;33.45
39435;BME280;30098;51.880;-0.518;2022-12-18T01:07:58;101184.50;;;13.29;32.91
39435;BME280;30098;51.880;-0.518;2022-12-18T01:10:25;101170.97;;;13.29;33.03
39435;BME280;30098;51.880;-0.518;2022-12-18T01:12:50;101183.41;;;13.30;33.30
39435;BME280;30098;51.880;-0.518;2022-12-18T01:15:16;101140.75;;;13.15;32.96
39435;BME280;30098;51.880;-0.518;2022-12-18T01:17:42;101177.13;;;13.24;33.05
39435;BME280;30098;51.880;-0.518;2022-12-18T01:20:09;101152.03;;;13.29;32.95
39435;BME280;30098;51.880;-0.518;2022-12-18T01:22:35;101176.38;;;13.29;32.95
39435;BME280;30098;51.880;-0.518;2022-12-18T01:25:01;101154.72;;;13.29;33.09
39435;BME280;30098;51.880;-0.518;2022-12-18T01:27:27;101155.78;;;13.28;33.01
39435;BME280;30098;51.880;-0.518;2022-12-18T01:29:52;101152.25;;;13.27;33.22
39435;BME280;30098;51.880;-0.518;2022-12-18T01:32:19;101154.97;;;13.27;32.68
39435;BME280;30098;51.880;-0.518;2022-12-18T01:34:44;101143.06;;;13.28;33.18
39435;BME280;30098;51.880;-0.518;2022-12-18T01:37:10;101108.72;;;13.07;33.23
39435;BME280;30098;51.880;-0.518;2022-12-18T01:39:36;101126.09;;;13.11;33.22
39435;BME280;30098;51.880;-0.518;2022-12-18T01:42:12;101116.66;;;13.13;33.02
39435;BME280;30098;51.880;-0.518;2022-12-18T01:47:41;101153.31;;;13.26;32.86
39435;BME280;30098;51.880;-0.518;2022-12-18T01:50:22;101089.63;;;12.91;32.48
39435;BME280;30098;51.880;-0.518;2022-12-18T01:55:18;101136.47;;;13.19;32.94
39435;BME280;30098;51.880;-0.518;2022-12-18T01:57:44;101131.88;;;13.19;32.96
39435;BME280;30098;51.880;-0.518;2022-12-18T02:00:14;101109.00;;;13.05;32.77
39435;BME280;30098;51.880;-0.518;2022-12-18T02:02:41;101158.41;;;13.23;32.55
39435;BME280;30098;51.880;-0.518;2022-12-18T02:05:09;101102.03;;;12.87;33.29
39435;BME280;30098;51.880;-0.518;2022-12-18T02:10:13;101143.81;;;13.24;32.76
39435;BME280;30098;51.880;-0.518;2022-12-18T02:15:54;101171.16;;;13.22;32.89
39435;BME280;30098;51.880;-0.518;2022-12-18T02:18:30;101146.66;;;13.12;32.57
39435;BME280;30098;51.880;-0.518;2022-12-18T02:26:47;101163.28;;;13.21;32.96
39435;BME280;30098;51.880;-0.518;2022-12-18T02:29:34;101186.81;;;13.20;32.86
39435;BME280;30098;51.880;-0.518;2022-12-18T02:32:03;101167.88;;;13.20;33.30
39435;BME280;30098;51.880;-0.518;2022-12-18T02:34:32;101163.53;;;13.19;32.86
39435;BME280;30098;51.880;-0.518;2022-12-18T02:37:04;101191.41;;;13.19;33.10
39435;BME280;30098;51.880;-0.518;2022-12-18T02:39:32;101173.53;;;13.18;33.15
39435;BME280;30098;51.880;-0.518;2022-12-18T02:42:00;101199.75;;;13.18;32.79
39435;BME280;30098;51.880;-0.518;2022-12-18T02:44:27;101186.22;;;13.18;32.77
39435;BME280;30098;51.880;-0.518;2022-12-18T02:46:53;101183.53;;;13.18;32.92
39435;BME280;30098;51.880;-0.518;2022-12-18T02:57:30;101175.41;;;13.18;33.07
39435;BME280;30098;51.880;-0.518;2022-12-18T03:00:12;100858.28;;;11.18;33.05
39435;BME280;30098;51.880;-0.518;2022-12-18T03:02:59;101175.19;;;13.19;32.90
39435;BME280;30098;51.880;-0.518;2022-12-18T03:05:47;101160.00;;;13.18;32.77
39435;BME280;30098;51.880;-0.518;2022-12-18T03:08:39;101157.31;;;13.18;33.16
39435;BME280;30098;51.880;-0.518;2022-12-18T03:11:09;101125.34;;;12.93;33.06
39435;BME280;30098;51.880;-0.518;2022-12-18T03:13:50;101147.28;;;13.19;32.79
39435;BME280;30098;51.880;-0.518;2022-12-18T03:16:23;101141.88;;;13.19;33.04
39435;BME280;30098;51.880;-0.518;2022-12-18T03:18:55;101110.56;;;13.01;33.23
39435;BME280;30098;51.880;-0.518;2022-12-18T03:21:26;101093.69;;;12.94;32.66
39435;BME280;30098;51.880;-0.518;2022-12-18T03:23:54;101007.25;;;12.32;32.96
39435;BME280;30098;51.880;-0.518;2022-12-18T03:26:23;101125.41;;;13.21;33.17
39435;BME280;30098;51.880;-0.518;2022-12-18T03:28:53;101128.91;;;13.21;32.65
39435;BME280;30098;51.880;-0.518;2022-12-18T03:31:23;100937.56;;;12.12;33.14
39435;BME280;30098;51.880;-0.518;2022-12-18T03:33:54;101105.06;;;13.18;33.19
39435;BME280;30098;51.880;-0.518;2022-12-18T03:36:20;101103.50;;;13.22;32.98
39435;BME280;30098;51.880;-0.518;2022-12-18T03:38:46;101113.25;;;13.23;32.83
39435;BME280;30098;51.880;-0.518;2022-12-18T03:41:31;101077.88;;;13.02;32.92
39435;BME280;30098;51.880;-0.518;2022-12-18T03:46:33;101115.69;;;13.25;32.94
39435;BME280;30098;51.880;-0.518;2022-12-18T03:51:43;101124.66;;;13.25;32.63
39435;BME280;30098;51.880;-0.518;2022-12-18T03:54:12;101101.09;;;13.26;33.05
39435;BME280;30098;51.880;-0.518;2022-12-18T03:56:44;101113.81;;;13.25;33.29
39435;BME280;30098;51.880;-0.518;2022-12-18T03:59:13;101097.59;;;13.25;32.81
39435;BME280;30098;51.880;-0.518;2022-12-18T04:01:46;101078.66;;;13.25;32.63
39435;BME280;30098;51.880;-0.518;2022-12-18T04:04:14;100998.56;;;12.75;32.87
39435;BME280;30098;51.880;-0.518;2022-12-18T04:06:42;101084.88;;;13.26;32.62
39435;BME280;30098;51.880;-0.518;2022-12-18T04:09:09;101088.63;;;13.25;33.32
39435;BME280;30098;51.880;-0.518;2022-12-18T04:11:35;101113.00;;;13.25;33.24
39435;BME280;30098;51.880;-0.518;2022-12-18T04:14:00;101096.75;;;13.25;33.17
39435;BME280;30098;51.880;-0.518;2022-12-18T04:16:26;101078.66;;;13.25;33.12
39435;BME280;30098;51.880;-0.518;2022-12-18T04:18:52;101072.66;;;13.23;32.97
39435;BME280;30098;51.880;-0.518;2022-12-18T04:21:18;101055.25;;;13.14;33.01
39435;BME280;30098;51.880;-0.518;2022-12-18T04:23:44;100959.06;;;12.46;33.12
39435;BME280;30098;51.880;-0.518;2022-12-18T04:26:10;101064.53;;;13.23;32.71
39435;BME280;30098;51.880;-0.518;2022-12-18T04:28:35;101058.53;;;13.16;33.55
39435;BME280;30098;51.880;-0.518;2022-12-18T04:31:01;101068.88;;;13.24;32.85
39435;BME280;30098;51.880;-0.518;2022-12-18T04:33:26;101065.34;;;13.24;32.64
39435;BME280;30098;51.880;-0.518;2022-12-18T04:35:52;101063.47;;;13.24;33.07
39435;BME280;30098;51.880;-0.518;2022-12-18T04:38:17;101071.59;;;13.24;33.22
39435;BME280;30098;51.880;-0.518;2022-12-18T04:40:43;101059.94;;;13.24;33.12
39435;BME280;30098;51.880;-0.518;2022-12-18T04:43:08;101021.34;;;13.06;33.03
39435;BME280;30098;51.880;-0.518;2022-12-18T04:45:34;101049.09;;;13.24;32.76
39435;BME280;30098;51.880;-0.518;2022-12-18T04:48:00;101059.13;;;13.23;32.91
39435;BME280;30098;51.880;-0.518;2022-12-18T04:50:25;101025.94;;;13.06;33.07
39435;BME280;30098;51.880;-0.518;2022-12-18T04:52:51;101017.31;;;13.09;33.04
39435;BME280;30098;51.880;-0.518;2022-12-18T04:55:16;101044.78;;;13.23;33.08
39435;BME280;30098;51.880;-0.518;2022-12-18T04:57:42;101044.78;;;13.23;32.66
39435;BME280;30098;51.880;-0.518;2022-12-18T05:00:08;101004.03;;;13.07;33.17
39435;BME280;30098;51.880;-0.518;2022-12-18T05:02:33;101019.63;;;13.22;33.66
39435;BME280;30098;51.880;-0.518;2022-12-18T05:04:59;100996.31;;;13.21;32.88
39435;BME280;30098;51.880;-0.518;2022-12-18T05:07:24;100951.34;;;12.82;32.83
39435;BME280;30098;51.880;-0.518;2022-12-18T05:09:50;100843.50;;;12.31;32.46
39435;BME280;30098;51.880;-0.518;2022-12-18T05:12:15;100976.59;;;13.21;32.97
39435;BME280;30098;51.880;-0.518;2022-12-18T05:14:41;100961.91;;;13.16;32.97
39435;BME280;30098;51.880;-0.518;2022-12-18T05:17:06;100974.28;;;13.07;32.92
39435;BME280;30098;51.880;-0.518;2022-12-18T05:19:32;100966.81;;;13.19;32.97
39435;BME280;30098;51.880;-0.518;2022-12-18T05:21:57;100962.19;;;13.15;32.90
39435;BME280;30098;51.880;-0.518;2022-12-18T05:24:23;100965.19;;;13.18;33.16
39435;BME280;30098;51.880;-0.518;2022-12-18T05:26:49;100908.97;;;12.93;33.08
39435;BME280;30098;51.880;-0.518;2022-12-18T05:29:14;100947.31;;;13.17;32.77
39435;BME280;30098;51.880;-0.518;2022-12-18T05:31:40;100970.88;;;13.17;33.43
39435;BME280;30098;51.880;-0.518;2022-12-18T05:34:05;100952.72;;;13.17;32.96
39435;BME280;30098;51.880;-0.518;2022-12-18T05:36:31;100914.69;;;12.97;32.85
39435;BME280;30098;51.880;-0.518;2022-12-18T05:38:57;100953.00;;;13.16;32.63
39435;BME280;30098;51.880;-0.518;2022-12-18T05:41:22;100933.03;;;12.90;32.52
39435;BME280;30098;51.880;-0.518;2022-12-18T05:43:48;100984.41;;;13.17;33.21
39435;BME280;30098;51.880;-0.518;2022-12-18T05:46:15;100965.66;;;13.10;32.59
39435;BME280;30098;51.880;-0.518;2022-12-18T05:48:43;100963.81;;;13.16;33.56
39435;BME280;30098;51.880;-0.518;2022-12-18T05:51:12;100940.53;;;13.15;32.37
39435;BME280;30098;51.880;-0.518;2022-12-18T05:53:38;100931.34;;;13.16;32.91
39435;BME280;30098;51.880;-0.518;2022-12-18T05:56:06;100922.66;;;13.14;32.80
39435;BME280;30098;51.880;-0.518;2022-12-18T05:58:32;100887.53;;;12.86;32.89
39435;BME280;30098;51.880;-0.518;2022-12-18T06:03:33;100946.22;;;13.13;33.26
39435;BME280;30098;51.880;-0.518;2022-12-18T06:05:59;100936.19;;;13.14;33.07
39435;BME280;30098;51.880;-0.518;2022-12-18T06:08:24;100910.22;;;13.13;33.42
39435;BME280;30098;51.880;-0.518;2022-12-18T06:10:51;100909.91;;;13.09;33.01
39435;BME280;30098;51.880;-0.518;2022-12-18T06:13:18;100901.28;;;13.12;33.13
39435;BME280;30098;51.880;-0.518;2022-12-18T06:15:44;100793.63;;;12.39;32.90
39435;BME280;30098;51.880;-0.518;2022-12-18T06:18:09;100731.94;;;12.03;32.97
39435;BME280;30098;51.880;-0.518;2022-12-18T06:20:35;100902.56;;;13.05;32.43
39435;BME280;30098;51.880;-0.518;2022-12-18T06:23:02;100893.97;;;13.13;33.14
39435;BME280;30098;51.880;-0.518;2022-12-18T06:25:28;100886.94;;;13.12;32.93
39435;BME280;30098;51.880;-0.518;2022-12-18T06:27:53;100835.50;;;12.69;32.94
39435;BME280;30098;51.880;-0.518;2022-12-18T06:30:19;100903.94;;;13.07;32.81
39435;BME280;30098;51.880;-0.518;2022-12-18T06:32:45;100684.75;;;11.84;33.07
39435;BME280;30098;51.880;-0.518;2022-12-18T06:35:10;100858.84;;;12.80;32.51
39435;BME280;30098;51.880;-0.518;2022-12-18T06:37:36;100856.25;;;12.96;33.31
39435;BME280;30098;51.880;-0.518;2022-12-18T06:40:01;100851.03;;;12.84;32.89
39435;BME280;30098;51.880;-0.518;2022-12-18T06:42:28;100878.28;;;13.10;32.75
39435;BME280;30098;51.880;-0.518;2022-12-18T06:44:53;100880.16;;;13.09;32.91
39435;BME280;30098;51.880;-0.518;2022-12-18T06:47:19;100876.66;;;13.09;32.61
39435;BME280;30098;51.880;-0.518;2022-12-18T06:49:44;100880.91;;;12.99;33.11
39435;BME280;30098;51.880;-0.518;2022-12-18T06:52:10;100882.06;;;13.09;33.16
39435;BME280;30098;51.880;-0.518;2022-12-18T06:54:35;100890.66;;;13.00;33.24
39435;BME280;30098;51.880;-0.518;2022-12-18T06:57:01;100869.59;;;13.08;32.66
39435;BME280;30098;51.880;-0.518;2022-12-18T06:59:26;100863.34;;;13.07;32.81
39435;BME280;30098;51.880;-0.518;2022-12-18T07:01:52;100877.38;;;12.99;32.54
39435;BME280;30098;51.880;-0.518;2022-12-18T07:04:17;100889.59;;;13.07;32.79
39435;BME280;30098;51.880;-0.518;2022-12-18T07:06:43;100866.06;;;13.07;32.84
39435;BME280;30098;51.880;-0.518;2022-12-18T07:09:08;100864.47;;;13.06;33.07
39435;BME280;30098;51.880;-0.518;2022-12-18T07:11:33;100880.69;;;13.06;32.96
39435;BME280;30098;51.880;-0.518;2022-12-18T07:13:59;100831.59;;;12.87;33.09
39435;BME280;30098;51.880;-0.518;2022-12-18T07:16:25;100850.09;;;13.06;33.03
39435;BME280;30098;51.880;-0.518;2022-12-18T07:18:50;100859.28;;;13.05;32.63
39435;BME280;30098;51.880;-0.518;2022-12-18T07:21:18;100842.25;;;13.04;33.50
39435;BME280;30098;51.880;-0.518;2022-12-18T07:23:44;100844.97;;;13.04;33.25
39435;BME280;30098;51.880;-0.518;2022-12-18T07:26:12;100830.59;;;13.03;32.55
39435;BME280;30098;51.880;-0.518;2022-12-18T07:28:40;100837.13;;;13.02;33.28
39435;BME280;30098;51.880;-0.518;2022-12-18T07:31:07;100829.81;;;13.03;33.42
39435;BME280;30098;51.880;-0.518;2022-12-18T07:33:34;100776.78;;;12.64;32.81
39435;BME280;30098;51.880;-0.518;2022-12-18T07:36:00;100816.53;;;13.01;33.51
39435;BME280;30098;51.880;-0.518;2022-12-18T07:38:26;100814.91;;;13.00;33.33
39435;BME280;30098;51.880;-0.518;2022-12-18T07:40:51;100796.78;;;13.01;33.03
39435;BME280;30098;51.880;-0.518;2022-12-18T07:43:17;100804.88;;;13.01;32.97
39435;BME280;30098;51.880;-0.518;2022-12-18T07:45:42;100817.63;;;13.00;32.96
39435;BME280;30098;51.880;-0.518;2022-12-18T07:48:08;100613.50;;;11.85;32.90
39435;BME280;30098;51.880;-0.518;2022-12-18T07:50:33;100804.88;;;13.01;33.01
39435;BME280;30098;51.880;-0.518;2022-12-18T07:52:59;100793.28;;;13.00;33.45
39435;BME280;30098;51.880;-0.518;2022-12-18T07:55:29;100792.09;;;12.86;32.67
39435;BME280;30098;51.880;-0.518;2022-12-18T07:57:55;100803.25;;;13.00;32.86
39435;BME280;30098;51.880;-0.518;2022-12-18T08:00:20;100788.13;;;12.99;33.49
39435;BME280;30098;51.880;-0.518;2022-12-18T08:02:46;100796.19;;;12.94;32.89
39435;BME280;30098;51.880;-0.518;2022-12-18T08:05:11;100785.25;;;12.78;33.19
39435;BME280;30098;51.880;-0.518;2022-12-18T08:07:37;100831.41;;;12.99;33.36
39435;BME280;30098;51.880;-0.518;2022-12-18T08:10:03;100781.19;;;12.76;33.42
39435;BME280;30098;51.880;-0.518;2022-12-18T08:12:28;100834.34;;;12.97;32.93
39435;BME280;30098;51.880;-0.518;2022-12-18T08:14:53;100837.06;;;12.97;33.33
39435;BME280;30098;51.880;-0.518;2022-12-18T08:17:19;100826.22;;;12.97;32.88
39435;BME280;30098;51.880;-0.518;2022-12-18T08:19:45;100837.88;;;12.98;32.36
39435;BME280;30098;51.880;-0.518;2022-12-18T08:22:10;100838.97;;;12.97;32.99
39435;BME280;30098;51.880;-0.518;2022-12-18T08:24:36;100832.69;;;12.91;33.29
39435;BME280;30098;51.880;-0.518;2022-12-18T08:27:01;100817.78;;;12.89;32.70
39435;BME280;30098;51.880;-0.518;2022-12-18T08:29:27;100825.44;;;12.97;32.94
39435;BME280;30098;51.880;-0.518;2022-12-18T08:31:52;100825.44;;;12.97;32.89
39435;BME280;30098;51.880;-0.518;2022-12-18T08:34:17;100732.53;;;12.38;33.63
39435;BME280;30098;51.880;-0.518;2022-12-18T08:36:43;100605.25;;;11.69;33.12
39435;BME280;30098;51.880;-0.518;2022-12-18T08:39:08;100757.41;;;12.73;33.11
39435;BME280;30098;51.880;-0.518;2022-12-18T08:41:34;100725.22;;;12.38;33.28
39435;BME280;30098;51.880;-0.518;2022-12-18T08:43:59;100798.44;;;12.69;33.19
39435;BME280;30098;51.880;-0.518;2022-12-18T08:46:44;100842.94;;;12.89;32.71
39435;BME280;30098;51.880;-0.518;2022-12-18T08:49:11;100855.69;;;12.94;33.09
39435;BME280;30098;51.880;-0.518;2022-12-18T08:51:37;100825.94;;;12.94;33.39
39435;BME280;30098;51.880;-0.518;2022-12-18T08:54:03;100793.88;;;12.70;33.02
39435;BME280;30098;51.880;-0.518;2022-12-18T08:56:29;100784.91;;;12.64;33.45
39435;BME280;30098;51.880;-0.518;2022-12-18T08:58:55;100835.97;;;12.93;33.51
39435;BME280;30098;51.880;-0.518;2022-12-18T09:01:22;100852.19;;;12.93;33.13
39435;BME280;30098;51.880;-0.518;2022-12-18T09:03:50;100818.53;;;12.79;32.86
39435;BME280;30098;51.880;-0.518;2022-12-18T09:06:18;100856.75;;;12.93;33.21
39435;BME280;30098;51.880;-0.518;2022-12-18T09:08:44;100834.31;;;12.92;33.41
39435;BME280;30098;51.880;-0.518;2022-12-18T09:11:20;100821.31;;;12.89;33.25
39435;BME280;30098;51.880;-0.518;2022-12-18T09:13:46;100775.63;;;12.55;33.50
39435;BME280;30098;51.880;-0.518;2022-12-18T09:16:11;100830.75;;;12.86;33.03
39435;BME280;30098;51.880;-0.518;2022-12-18T09:18:36;100836.47;;;12.90;33.19
39435;BME280;30098;51.880;-0.518;2022-12-18T09:21:13;100842.69;;;12.91;33.39
39435;BME280;30098;51.880;-0.518;2022-12-18T09:23:39;100847.28;;;12.90;33.28
39435;BME280;30098;51.880;-0.518;2022-12-18T09:26:05;100842.94;;;12.89;33.08
39435;BME280;30098;51.880;-0.518;2022-12-18T09:28:30;100803.25;;;12.62;33.42
39435;BME280;30098;51.880;-0.518;2022-12-18T09:30:56;100782.94;;;12.54;32.98
39435;BME280;30098;51.880;-0.518;2022-12-18T09:33:21;100847.28;;;12.90;33.62
39435;BME280;30098;51.880;-0.518;2022-12-18T09:35:47;100852.69;;;12.90;33.53
39435;BME280;30098;51.880;-0.518;2022-12-18T09:38:15;100837.53;;;12.89;33.51
39435;BME280;30098;51.880;-0.518;2022-12-18T09:40:47;100837.53;;;12.89;33.44
39435;BME280;30098;51.880;-0.518;2022-12-18T09:43:30;100845.66;;;12.89;32.92
39435;BME280;30098;51.880;-0.518;2022-12-18T09:46:04;100859.16;;;12.89;32.72
39435;BME280;30098;51.880;-0.518;2022-12-18T09:48:42;100853.75;;;12.89;33.23
39435;BME280;30098;51.880;-0.518;2022-12-18T09:51:16;100846.47;;;12.90;33.15
39435;BME280;30098;51.880;-0.518;2022-12-18T09:53:47;100836.94;;;12.82;32.82
39435;BME280;30098;51.880;-0.518;2022-12-18T09:56:17;100842.41;;;12.87;33.68
39435;BME280;30098;51.880;-0.518;2022-12-18T09:58:53;100845.91;;;12.87;33.26
39435;BME280;30098;51.880;-0.518;2022-12-18T10:01:21;100835.94;;;12.88;33.16
39435;BME280;30098;51.880;-0.518;2022-12-18T10:03:48;100815.56;;;12.80;33.53
39435;BME280;30098;51.880;-0.518;2022-12-18T10:06:22;100838.88;;;12.86;33.31
39435;BME280;30098;51.880;-0.518;2022-12-18T10:08:54;100823.47;;;12.87;33.69
39435;BME280;30098;51.880;-0.518;2022-12-18T10:11:53;100802.91;;;12.86;33.18
39435;BME280;30098;51.880;-0.518;2022-12-18T10:14:34;100772.19;;;12.65;33.18
39435;BME280;30098;51.880;-0.518;2022-12-18T10:20:05;100798.56;;;12.85;33.49
39435;BME280;30098;51.880;-0.518;2022-12-18T10:25:25;100779.66;;;12.85;33.43
39435;BME280;30098;51.880;-0.518;2022-12-18T10:27:57;100768.03;;;12.84;33.15
39435;BME280;30098;51.880;-0.518;2022-12-18T10:30:25;100760.97;;;12.83;33.44
39435;BME280;30098;51.880;-0.518;2022-12-18T10:32:51;100746.34;;;12.79;33.44
39435;BME280;30098;51.880;-0.518;2022-12-18T10:35:26;100749.34;;;12.83;33.22
39435;BME280;30098;51.880;-0.518;2022-12-18T10:43:14;100702.56;;;12.82;33.33
39435;BME280;30098;51.880;-0.518;2022-12-18T10:45:41;100556.53;;;11.86;32.97
39435;BME280;30098;51.880;-0.518;2022-12-18T10:48:23;100677.94;;;12.79;33.34
39435;BME280;30098;51.880;-0.518;2022-12-18T10:50:50;100707.13;;;12.82;33.42
39435;BME280;30098;51.880;-0.518;2022-12-18T10:53:23;100648.63;;;12.60;33.16
39435;BME280;30098;51.880;-0.518;2022-12-18T10:55:49;100698.22;;;12.81;33.23
39435;BME280;30098;51.880;-0.518;2022-12-18T11:01:02;100653.28;;;12.70;33.31
39435;BME280;30098;51.880;-0.518;2022-12-18T11:03:33;100586.59;;;12.33;33.72
39435;BME280;30098;51.880;-0.518;2022-12-18T11:06:11;100659.56;;;12.81;33.29
39435;BME280;30098;51.880;-0.518;2022-12-18T11:08:37;100651.47;;;12.81;33.31
39435;BME280;30098;51.880;-0.518;2022-12-18T11:11:07;100665.22;;;12.79;33.49
39435;BME280;30098;51.880;-0.518;2022-12-18T11:13:40;100657.09;;;12.79;33.64
39435;BME280;30098;51.880;-0.518;2022-12-18T11:16:05;100640.09;;;12.79;33.33
39435;BME280;30098;51.880;-0.518;2022-12-18T11:18:35;100615.19;;;12.77;33.48
39435;BME280;30098;51.880;-0.518;2022-12-18T11:21:07;100597.25;;;12.60;33.08
39435;BME280;30098;51.880;-0.518;2022-12-18T11:23:34;100455.53;;;11.82;33.27
39435;BME280;30098;51.880;-0.518;2022-12-18T11:26:04;100457.69;;;11.80;33.75
39435;BME280;30098;51.880;-0.518;2022-12-18T11:33:54;100623.03;;;12.78;33.32
39435;BME280;30098;51.880;-0.518;2022-12-18T11:36:23;100632.75;;;12.69;33.62
39435;BME280;30098;51.880;-0.518;2022-12-18T11:38:50;100599.94;;;12.55;33.44
39435;BME280;30098;51.880;-0.518;2022-12-18T11:41:26;100478.25;;;11.86;33.61
39435;BME280;30098;51.880;-0.518;2022-12-18T11:44:26;100589.78;;;12.73;33.50
39435;BME280;30098;51.880;-0.518;2022-12-18T11:50:17;100594.63;;;12.76;33.67
39435;BME280;30098;51.880;-0.518;2022-12-18T11:52:44;100459.63;;;11.90;33.73
39435;BME280;30098;51.880;-0.518;2022-12-18T11:55:15;100429.63;;;11.81;33.79
39435;BME280;30098;51.880;-0.518;2022-12-18T11:57:57;100548.88;;;12.59;32.98
39435;BME280;30098;51.880;-0.518;2022-12-18T12:00:25;100539.97;;;12.58;33.69
39435;BME280;30098;51.880;-0.518;2022-12-18T12:03:14;100560.56;;;12.75;33.96
39435;BME280;30098;51.880;-0.518;2022-12-18T12:16:17;100465.00;;;12.33;33.78
39435;BME280;30098;51.880;-0.518;2022-12-18T12:19:23;100462.59;;;12.42;33.85
39435;BME280;30098;51.880;-0.518;2022-12-18T12:30:24;100483.50;;;12.72;33.45
39435;BME280;30098;51.880;-0.518;2022-12-18T12:33:18;100486.47;;;12.70;33.91
39435;BME280;30098;51.880;-0.518;2022-12-18T12:35:59;100303.47;;;11.61;33.87
39435;BME280;30098;51.880;-0.518;2022-12-18T12:38:51;100438.31;;;12.52;33.97
39435;BME280;30098;51.880;-0.518;2022-12-18T12:41:22;100452.63;;;12.52;33.58
39435;BME280;30098;51.880;-0.518;2022-12-18T12:44:15;100474.88;;;12.70;33.87
39435;BME280;30098;51.880;-0.518;2022-12-18T12:46:42;100447.50;;;12.56;33.65
39435;BME280;30098;51.880;-0.518;2022-12-18T12:49:22;100465.94;;;12.69;33.99
39435;BME280;30098;51.880;-0.518;2022-12-18T12:52:06;100491.09;;;12.70;33.51
39435;BME280;30098;51.880;-0.518;2022-12-18T12:54:34;100403.41;;;12.35;33.85
39435;BME280;30098;51.880;-0.518;2022-12-18T12:57:15;100282.97;;;11.65;33.85
39435;BME280;30098;51.880;-0.518;2022-12-18T12:59:56;100444.31;;;12.69;33.19
39435;BME280;30098;51.880;-0.518;2022-12-18T13:02:42;100445.38;;;12.68;33.66
39435;BME280;30098;51.880;-0.518;2022-12-18T13:05:28;100438.91;;;12.69;33.96
39435;BME280;30098;51.880;-0.518;2022-12-18T13:08:07;100437.28;;;12.68;33.94
39435;BME280;30098;51.880;-0.518;2022-12-18T13:10:38;100423.75;;;12.68;33.78
39435;BME280;30098;51.880;-0.518;2022-12-18T13:15:45;100441.88;;;12.68;33.82
39435;BME280;30098;51.880;-0.518;2022-12-18T13:21:24;100403.19;;;12.67;34.04
39435;BME280;30098;51.880;-0.518;2022-12-18T13:23:31;100258.72;;;11.75;33.78
39435;BME280;30098;51.880;-0.518;2022-12-18T13:31:10;100374.56;;;12.66;34.02
39435;BME280;30098;51.880;-0.518;2022-12-18T13:33:38;100382.13;;;12.59;34.07
39435;BME280;30098;51.880;-0.518;2022-12-18T13:36:25;100370.75;;;12.67;33.74
39435;BME280;30098;51.880;-0.518;2022-12-18T13:41:44;100362.94;;;12.66;33.81
39435;BME280;30098;51.880;-0.518;2022-12-18T13:44:39;100354.03;;;12.65;33.93
39435;BME280;30098;51.880;-0.518;2022-12-18T13:47:26;100292.63;;;12.30;33.76
39435;BME280;30098;51.880;-0.518;2022-12-18T13:49:54;100336.97;;;12.65;33.85
39435;BME280;30098;51.880;-0.518;2022-12-18T13:52:26;100347.00;;;12.64;34.16
39435;BME280;30098;51.880;-0.518;2022-12-18T13:54:57;100342.38;;;12.65;33.46
39435;BME280;30098;51.880;-0.518;2022-12-18T13:59:53;100336.19;;;12.64;33.27
39435;BME280;30098;51.880;-0.518;2022-12-18T14:02:26;100322.66;;;12.64;33.95
39435;BME280;30098;51.880;-0.518;2022-12-18T14:04:53;100332.66;;;12.64;33.52
39435;BME280;30098;51.880;-0.518;2022-12-18T14:07:21;100296.72;;;12.63;33.86
39435;BME280;30098;51.880;-0.518;2022-12-18T14:10:11;100290.22;;;12.64;33.59
39435;BME280;30098;51.880;-0.518;2022-12-18T14:12:38;100290.22;;;12.64;33.90
39435;BME280;30098;51.880;-0.518;2022-12-18T14:15:41;100281.28;;;12.64;33.91
39435;BME280;30098;51.880;-0.518;2022-12-18T14:20:41;100302.13;;;12.63;33.87
39435;BME280;30098;51.880;-0.518;2022-12-18T14:23:33;100299.41;;;12.63;34.03
39435;BME280;30098;51.880;-0.518;2022-12-18T14:26:17;100288.59;;;12.63;33.76